Bookmark and Share
Track history (hours):
 

Transformer Ol

Last reported at 2014-Apr-10 04:33 UTC. Time now 2014-Apr-18 03:14 UTC.
Position N 50°10' W 001°55'.

Length 169 m; draft 10.2 m.

Type: Cargo ship. MMSI: 372789000.

NotesDate/timePositionNaut miles runAvg speedWind from/ knotsBaromVisibWave heightAir tempDewpointWater temp
2014-Apr-10 04:33N 50°10' W 001°55'11 9.9
2014-Apr-10 03:29N 50°12' W 001°39'910.3
2014-Apr-10 02:33N 50°15' W 001°25'1111.2
2014-Apr-10 01:33N 50°18' W 001°08'1212.5
2014-Apr-10 00:33N 50°21' W 000°49'1312.8
2014-Apr-09 23:33N 50°25' W 000°30'1412.7
2014-Apr-09 22:28N 50°29' W 000°09'1112.3
2014-Apr-09 21:33N 50°32' E 000°08'1212.0
2014-Apr-09 20:33N 50°35' E 000°26'1111.4
2014-Apr-09 19:33N 50°39' E 000°42'1111.1
2014-Apr-09 18:33N 50°46' E 000°57'1110.9
2014-Apr-09 17:33N 50°52' E 001°11'1111.2
2014-Apr-09 16:33N 50°59' E 001°24'1212.6
2014-Apr-09 15:33N 51°09' E 001°38'1312.6
2014-Apr-09 14:33N 51°19' E 001°50'1212.2
2014-Apr-09 13:33N 51°29' E 002°00'1211.6
2014-Apr-09 12:33N 51°38' E 002°12'43610.8
2014-Apr-07 20:12N 57°36' E 009°22'3011.3
2014-Apr-07 17:33N 57°48' E 010°13'1111.2
2014-Apr-07 16:33N 57°48' E 010°34'1010.3
2014-Apr-07 15:33N 57°45' E 010°53'1212.2
2014-Apr-07 14:33N 57°37' E 011°09'1211.6
2014-Apr-07 13:33N 57°29' E 011°25'1211.6
2014-Apr-07 12:33N 57°18' E 011°33'1211.7
2014-Apr-07 11:33N 57°07' E 011°40'1211.7
2014-Apr-07 10:33N 56°56' E 011°47'1111.5
2014-Apr-07 09:33N 56°45' E 011°53'2611.8
2014-Apr-07 07:21N 56°29' E 011°16'1110.3
2014-Apr-07 06:18N 56°19' E 011°06'103 9.6
2014-Apr-06 19:32N 54°36' E 011°07'1111.5
2014-Apr-06 18:34N 54°32' E 011°25'1110.9
2014-Apr-06 17:33N 54°28' E 011°42'1110.8
2014-Apr-06 16:33N 54°26' E 012°01'9 9.3
2014-Apr-06 15:33N 54°32' E 012°14'1110.6
2014-Apr-06 14:33N 54°40' E 012°24'1111.3
2014-Apr-06 13:33N 54°46' E 012°41'1110.9
2014-Apr-06 12:33N 54°47' E 012°60'1111.2
2014-Apr-06 11:33N 54°48' E 013°19'1111.4
2014-Apr-06 10:33N 54°47' E 013°39'1211.6
2014-Apr-06 09:33N 54°44' E 013°58'1212.0
2014-Apr-06 08:33N 54°39' E 014°17'1211.7
2014-Apr-06 07:33N 54°39' E 014°37'1211.7
2014-Apr-06 06:33N 54°41' E 014°57'8511.6
2014-Apr-05 23:17N 54°55' E 017°22'10 9.0
2014-Apr-05 22:14N 54°59' E 017°37'811.6
2014-Apr-05 21:32N 55°03' E 017°49'2311.5
2014-Apr-05 19:31N 55°13' E 018°26'1111.6
2014-Apr-05 18:33N 55°18' E 018°44'78 1.6
2014-Apr-03 17:17N 55°43' E 020°55'  
2014-Apr-01 10:33N 55°11' E 018°35'1312.7
2014-Apr-01 09:33N 55°06' E 018°15'1212.4
2014-Apr-01 08:33N 55°00' E 017°56'1212.2
2014-Apr-01 07:33N 54°55' E 017°37'1512.1
2014-Apr-01 06:19N 54°52' E 017°11'1312.1
2014-Apr-01 05:15N 54°48' E 016°50'7412.1
2014-Mar-31 23:07N 54°37' E 014°43'711.9
2014-Mar-31 22:29N 54°36' E 014°30'1111.6
2014-Mar-31 21:34N 54°38' E 014°11'1212.1
2014-Mar-31 20:34N 54°45' E 013°55'1212.4
2014-Mar-31 19:33N 54°54' E 013°39'1313.1
2014-Mar-31 18:33N 55°02' E 013°22'1313.2
2014-Mar-31 17:33N 55°11' E 013°05'1312.6
2014-Mar-31 16:34N 55°17' E 012°45'10 9.7
2014-Mar-31 15:33N 55°26' E 012°39'1010.5
2014-Mar-31 14:33N 55°36' E 012°42'1110.5
2014-Mar-31 13:33N 55°47' E 012°41'1110.7
2014-Mar-31 12:33N 55°57' E 012°38'9 8.6
2014-Mar-31 11:33N 56°06' E 012°34'9 9.2
2014-Mar-31 10:33N 56°11' E 012°20'1312.7
2014-Mar-31 09:34N 56°19' E 012°02'1313.1
2014-Mar-31 08:32N 56°32' E 011°57'1313.1
2014-Mar-31 07:33N 56°44' E 011°52'1313.2
2014-Mar-31 06:33N 56°57' E 011°45'1312.9
2014-Mar-31 05:33N 57°09' E 011°37'1312.6
2014-Mar-31 04:33N 57°21' E 011°29'  

Dump ship's entire track history

sailing weather and tide predictions

Transformer Ol — 3EZY5 — position and weather